Time;durP1;ratioP1;P1;durP2;ratioP2;P2;SDS_P1;SDS_P2;PMS_P1;PMS_P2;Temp;Humidity;BMP_temperature;BMP_pressure;BME280_temperature;BME280_humidity;BME280_pressure;Samples;Min_cycle;Max_cycle;Signal;HPM_P1;HPM_P2
2023/10/06 00:03:05;;;;;;;9.45;4.80;;;;;;;15.80;57.15;99968.34;4454152;32;33531;-85
2023/10/06 00:05:33;;;;;;;9.98;4.62;;;;;;;16.07;56.47;99974.56;4467120;32;33443;-85
2023/10/06 00:08:05;;;;;;;9.27;4.40;;;;;;;16.20;56.10;99978.94;4450214;32;34117;-86
2023/10/06 00:10:32;;;;;;;10.57;5.32;;;;;;;16.10;56.25;99971.91;4451004;32;33840;-81
2023/10/06 00:13:01;;;;;;;8.70;4.12;;;;;;;16.10;56.07;99977.16;4451675;32;33697;-82
2023/10/06 00:15:38;;;;;;;8.27;4.70;;;;;;;16.00;56.37;99981.50;4451725;32;33662;-83
2023/10/06 00:18:16;;;;;;;11.23;4.72;;;;;;;16.09;55.98;99975.41;4447898;32;34140;-83
2023/10/06 00:20:48;;;;;;;8.30;4.40;;;;;;;16.00;56.16;99977.13;4465635;32;34049;-83
2023/10/06 00:23:21;;;;;;;10.75;4.95;;;;;;;15.89;56.25;99975.34;4453234;32;33587;-85
2023/10/06 00:25:56;;;;;;;9.55;4.53;;;;;;;15.82;56.43;99982.28;4453489;32;33772;-86
2023/10/06 00:28:32;;;;;;;8.82;4.55;;;;;;;15.62;57.02;99973.44;4453236;32;35117;-86
2023/10/06 00:31:09;;;;;;;10.30;4.40;;;;;;;15.36;57.74;99989.84;4438345;32;33897;-86
2023/10/06 00:33:41;;;;;;;8.65;4.22;;;;;;;15.32;57.82;99985.47;4451793;32;33525;-86
2023/10/06 00:36:17;;;;;;;10.48;4.87;;;;;;;15.29;57.76;99985.44;4451220;32;33401;-86
2023/10/06 00:38:47;;;;;;;10.75;4.50;;;;;;;15.35;57.39;99988.09;4451831;32;34035;-86
2023/10/06 00:41:15;;;;;;;8.88;4.50;;;;;;;15.42;57.11;99986.37;4452662;32;34595;-86
2023/10/06 00:43:45;;;;;;;8.70;4.87;;;;;;;15.32;57.15;99988.94;4466943;32;33068;-86
2023/10/06 00:46:14;;;;;;;8.52;4.32;;;;;;;15.27;57.34;99987.19;4467053;32;34032;-84
2023/10/06 00:48:44;;;;;;;8.40;3.97;;;;;;;15.21;57.32;99988.00;4466179;32;35071;-85
2023/10/06 00:51:19;;;;;;;7.95;3.92;;;;;;;15.15;57.38;99992.28;4451050;32;33899;-85
2023/10/06 00:53:51;;;;;;;9.57;4.18;;;;;;;15.05;57.85;99987.03;4451035;32;33365;-85
2023/10/06 00:56:23;;;;;;;8.45;4.28;;;;;;;15.06;57.67;99982.66;4451647;32;33387;-82
2023/10/06 00:58:52;;;;;;;11.88;5.00;;;;;;;15.06;57.58;99980.06;4466316;32;34006;-85
2023/10/06 01:01:21;;;;;;;8.80;3.87;;;;;;;15.16;57.03;99979.28;4452700;32;33883;-85
2023/10/06 01:04:06;;;;;;;8.02;3.70;;;;;;;14.95;57.28;99977.34;4466473;32;34208;-83
2023/10/06 01:06:36;;;;;;;9.23;4.43;;;;;;;15.04;56.90;99974.84;4463815;32;33945;-83
2023/10/06 01:11:53;;;;;;;10.60;4.78;;;;;;;14.91;56.00;99972.97;4437312;32;34022;-82
2023/10/06 01:14:25;;;;;;;10.18;4.37;;;;;;;15.10;55.91;99974.00;4443764;32;33011;-83
2023/10/06 01:17:03;;;;;;;11.63;4.60;;;;;;;15.02;55.84;99973.06;4452824;32;34548;-86
2023/10/06 01:19:33;;;;;;;11.65;4.65;;;;;;;14.84;55.98;99981.62;4439842;32;32698;-86
2023/10/06 01:22:24;;;;;;;9.68;4.60;;;;;;;14.78;56.18;99971.13;4467473;32;33692;-85
2023/10/06 01:24:55;;;;;;;11.27;4.20;;;;;;;14.93;56.03;99970.37;4459416;32;33819;-85
2023/10/06 01:27:26;;;;;;;10.35;4.65;;;;;;;15.01;55.95;99969.59;4438860;32;34083;-84
2023/10/06 01:32:50;;;;;;;14.87;4.90;;;;;;;14.71;56.63;99974.56;4450773;32;33653;-85
2023/10/06 01:35:23;;;;;;;9.82;4.12;;;;;;;14.67;56.16;99983.22;4452754;32;33802;-85
2023/10/06 01:37:57;;;;;;;11.05;4.40;;;;;;;14.83;56.24;99983.34;4452618;32;33122;-85
2023/10/06 01:42:52;;;;;;;12.50;4.40;;;;;;;15.03;55.89;99993.94;4466207;32;34809;-85
2023/10/06 01:45:23;;;;;;;9.82;4.35;;;;;;;15.03;55.53;100001.78;4468127;32;32515;-85
2023/10/06 01:50:39;;;;;;;9.70;4.25;;;;;;;15.03;55.23;99993.94;4467937;32;34016;-85
2023/10/06 01:53:18;;;;;;;8.15;4.47;;;;;;;15.06;55.44;99993.09;4452508;32;33888;-85
2023/10/06 01:55:49;;;;;;;10.95;4.35;;;;;;;14.91;55.67;99991.25;4451217;32;33459;-83
2023/10/06 01:58:16;;;;;;;10.15;4.28;;;;;;;14.66;55.99;99998.00;4451669;32;34234;-84
2023/10/06 02:00:48;;;;;;;9.98;4.47;;;;;;;14.63;56.08;99997.09;4452881;32;34601;-84
2023/10/06 02:03:17;;;;;;;9.05;4.10;;;;;;;14.72;56.09;100002.38;4466828;32;33824;-82
2023/10/06 02:05:46;;;;;;;11.23;4.80;;;;;;;14.74;55.14;100000.69;4467776;32;33381;-83
2023/10/06 02:08:31;;;;;;;12.98;5.10;;;;;;;14.73;55.22;100005.00;4454222;32;33704;-84
2023/10/06 02:11:01;;;;;;;9.77;4.47;;;;;;;14.34;56.80;100008.94;4465836;32;34084;-84
2023/10/06 02:13:29;;;;;;;10.88;4.65;;;;;;;14.69;55.79;100010.19;4452536;32;33746;-84
2023/10/06 02:16:01;;;;;;;8.82;4.37;;;;;;;14.64;55.60;100015.38;4438748;32;33097;-82
2023/10/06 02:18:37;;;;;;;9.55;4.10;;;;;;;14.81;55.34;100019.03;4452049;32;33985;-84
2023/10/06 02:21:13;;;;;;;8.35;4.60;;;;;;;14.68;55.66;100021.50;4454079;32;34224;-84
2023/10/06 02:23:41;;;;;;;13.18;4.55;;;;;;;14.64;55.83;100012.75;4467506;32;33874;-84
2023/10/06 02:26:12;;;;;;;12.25;5.40;;;;;;;14.52;55.87;100004.81;4468116;32;34575;-84
2023/10/06 02:28:43;;;;;;;11.77;5.05;;;;;;;14.38;55.99;100012.44;4467857;32;35300;-84
2023/10/06 02:31:11;;;;;;;10.02;4.47;;;;;;;14.49;55.81;100005.66;4451647;32;34965;-83
2023/10/06 02:33:40;;;;;;;9.88;4.45;;;;;;;14.56;55.41;100007.47;4452035;32;33885;-81
2023/10/06 02:36:17;;;;;;;13.38;4.53;;;;;;;14.69;54.68;100002.34;4452442;32;33155;-82
2023/10/06 02:38:48;;;;;;;9.30;4.15;;;;;;;14.47;55.65;100014.28;4452647;32;34020;-84
2023/10/06 02:41:21;;;;;;;9.40;4.35;;;;;;;14.67;55.21;100015.41;4440319;32;33595;-83
2023/10/06 02:43:50;;;;;;;9.43;4.60;;;;;;;14.62;55.50;100019.69;4445900;32;33817;-84
2023/10/06 02:46:23;;;;;;;11.43;5.05;;;;;;;14.65;54.93;100021.47;4455621;32;34176;-84
2023/10/06 02:48:52;;;;;;;11.63;4.82;;;;;;;14.76;54.76;100022.44;4439233;32;33518;-84
2023/10/06 02:51:32;;;;;;;10.23;4.28;;;;;;;14.53;54.99;100025.69;4452256;32;33878;-84
2023/10/06 02:54:20;;;;;;;11.65;4.47;;;;;;;14.37;55.76;100023.75;4452227;32;34108;-84
2023/10/06 02:56:50;;;;;;;8.90;4.40;;;;;;;14.55;55.06;100021.38;4440315;32;33030;-84
2023/10/06 02:59:20;;;;;;;10.65;4.75;;;;;;;14.43;55.82;100023.81;4452195;32;33794;-84
2023/10/06 03:01:52;;;;;;;9.98;4.57;;;;;;;14.54;55.43;100026.56;4451932;32;34319;-84
2023/10/06 03:04:21;;;;;;;12.02;4.55;;;;;;;14.29;55.74;100023.66;4452008;32;34127;-84
2023/10/06 03:06:53;;;;;;;12.18;4.78;;;;;;;14.30;55.87;100027.16;4466239;32;33591;-85
2023/10/06 03:09:27;;;;;;;12.18;4.45;;;;;;;14.15;56.39;100029.56;4467569;32;34088;-82
2023/10/06 03:11:58;;;;;;;12.30;5.55;;;;;;;14.35;55.36;100021.09;4454310;32;33705;-82
2023/10/06 03:14:37;;;;;;;12.25;4.70;;;;;;;14.44;55.31;100022.97;4467446;32;34325;-85
2023/10/06 03:17:10;;;;;;;9.57;4.50;;;;;;;14.38;55.41;100027.22;4452227;32;33376;-84
2023/10/06 03:19:43;;;;;;;11.32;4.28;;;;;;;14.49;55.37;100030.84;4438538;32;33712;-84
2023/10/06 03:22:13;;;;;;;12.52;5.10;;;;;;;14.38;55.84;100032.44;4452324;32;33620;-84
2023/10/06 03:24:52;;;;;;;10.65;5.00;;;;;;;14.47;55.69;100027.31;4463793;32;33695;-84
2023/10/06 03:27:22;;;;;;;10.45;4.72;;;;;;;14.43;55.94;100022.94;4467978;32;33269;-84
2023/10/06 03:29:54;;;;;;;11.30;5.03;;;;;;;14.41;55.95;100025.53;4467612;32;33552;-84
2023/10/06 03:32:32;;;;;;;9.77;4.93;;;;;;;14.32;56.30;100028.06;4453767;32;35292;-84
2023/10/06 03:35:14;;;;;;;7.85;4.15;;;;;;;14.34;56.25;100027.19;4451269;32;33934;-85
2023/10/06 03:37:51;;;;;;;11.75;4.90;;;;;;;14.69;54.92;100029.31;4451881;32;33795;-85
2023/10/06 03:40:30;;;;;;;11.15;4.80;;;;;;;14.40;55.71;100025.53;4442224;32;33810;-85
2023/10/06 03:43:00;;;;;;;11.07;4.97;;;;;;;14.21;56.86;100029.66;4442333;32;34736;-85
2023/10/06 03:45:31;;;;;;;10.77;4.90;;;;;;;14.25;56.40;100037.53;4450853;32;33948;-84
2023/10/06 03:48:09;;;;;;;13.07;5.40;;;;;;;14.40;56.13;100033.34;4451645;32;33017;-84
2023/10/06 03:50:41;;;;;;;11.30;5.10;;;;;;;14.32;56.34;100030.66;4438870;32;34651;-83
2023/10/06 03:53:12;;;;;;;11.68;4.47;;;;;;;14.45;55.99;100037.75;4464517;32;35133;-85
2023/10/06 03:55:42;;;;;;;11.12;5.00;;;;;;;14.44;56.29;100030.78;4467495;32;34966;-84
2023/10/06 03:58:12;;;;;;;12.98;5.68;;;;;;;14.31;56.57;100040.19;4452839;32;33205;-85
2023/10/06 04:00:41;;;;;;;14.77;5.97;;;;;;;14.34;56.18;100047.19;4453333;32;34155;-84
2023/10/06 04:03:10;;;;;;;14.05;6.60;;;;;;;14.09;56.78;100040.78;4454575;32;34166;-85
2023/10/06 04:05:37;;;;;;;10.65;5.80;;;;;;;13.95;57.34;100043.25;4441036;32;35161;-84
2023/10/06 04:08:08;;;;;;;10.15;5.43;;;;;;;13.82;57.71;100036.97;4467115;32;34056;-85
2023/10/06 04:10:36;;;;;;;13.57;5.32;;;;;;;13.74;57.99;100035.12;4467267;32;33918;-84
2023/10/06 04:13:08;;;;;;;13.30;5.45;;;;;;;13.65;58.19;100048.03;4466387;32;35026;-82
2023/10/06 04:15:44;;;;;;;13.02;5.65;;;;;;;13.85;57.62;100038.75;4466506;32;34282;-84
2023/10/06 04:18:11;;;;;;;11.85;6.10;;;;;;;13.52;58.58;100045.22;4453272;32;34139;-84
2023/10/06 04:20:41;;;;;;;13.62;6.05;;;;;;;13.58;58.71;100044.47;4467073;32;34661;-84
2023/10/06 04:23:18;;;;;;;12.32;5.65;;;;;;;13.47;59.06;100043.41;4440910;32;34298;-84
2023/10/06 04:25:46;;;;;;;11.88;6.05;;;;;;;12.88;60.88;100052.88;4452868;32;34263;-84
2023/10/06 04:28:16;;;;;;;13.32;6.00;;;;;;;12.84;61.18;100058.88;4464898;32;34692;-86
2023/10/06 04:30:44;;;;;;;13.02;6.32;;;;;;;12.99;60.57;100053.03;4464110;32;33983;-87
2023/10/06 04:33:15;;;;;;;14.57;5.85;;;;;;;12.89;61.15;100049.41;4450765;32;35166;-85
2023/10/06 04:35:55;;;;;;;14.48;6.07;;;;;;;12.97;61.15;100052.12;4439422;32;33946;-84
2023/10/06 04:38:26;;;;;;;13.27;6.15;;;;;;;13.08;60.47;100044.50;4456153;32;33405;-84
2023/10/06 04:40:55;;;;;;;11.73;6.05;;;;;;;13.13;60.54;100053.28;4444915;32;33731;-84
2023/10/06 04:43:23;;;;;;;11.38;6.40;;;;;;;13.05;61.31;100053.13;4458124;32;33749;-84
2023/10/06 04:45:51;;;;;;;12.48;6.30;;;;;;;12.99;61.10;100050.41;4465853;32;33775;-83
2023/10/06 04:48:18;;;;;;;11.48;6.22;;;;;;;12.93;61.42;100058.13;4458199;32;33597;-83
2023/10/06 04:50:46;;;;;;;12.32;5.80;;;;;;;12.84;61.58;100064.06;4456622;32;34549;-81
2023/10/06 04:53:16;;;;;;;13.65;7.07;;;;;;;12.79;61.89;100059.62;4453301;32;35493;-84
2023/10/06 04:55:44;;;;;;;13.05;5.60;;;;;;;13.03;61.01;100054.84;4453419;32;34890;-85
2023/10/06 04:58:15;;;;;;;11.32;6.12;;;;;;;12.83;61.57;100069.22;4460084;32;33342;-84
2023/10/06 05:00:46;;;;;;;16.05;6.72;;;;;;;13.01;61.10;100069.56;4455792;32;33972;-84
2023/10/06 05:03:14;;;;;;;12.52;6.32;;;;;;;13.01;60.91;100061.75;4445404;32;33721;-85
2023/10/06 05:05:42;;;;;;;16.67;6.50;;;;;;;13.19;60.38;100069.00;4462681;32;33593;-86
2023/10/06 05:08:14;;;;;;;13.50;6.05;;;;;;;13.38;59.83;100065.00;4441914;32;32894;-85
2023/10/06 05:10:42;;;;;;;14.07;6.28;;;;;;;13.56;59.08;100060.09;4455943;32;33951;-84
2023/10/06 05:13:10;;;;;;;12.85;5.65;;;;;;;13.41;59.57;100070.25;4458238;32;34635;-85
2023/10/06 05:15:41;;;;;;;14.48;6.22;;;;;;;13.18;60.29;100068.97;4451947;32;33831;-85
2023/10/06 05:18:15;;;;;;;11.23;6.37;;;;;;;13.32;60.05;100072.69;4456053;32;33595;-85
2023/10/06 05:20:43;;;;;;;15.30;6.43;;;;;;;13.18;60.45;100087.19;4458216;32;33591;-84
2023/10/06 05:23:16;;;;;;;14.18;6.40;;;;;;;13.27;60.44;100103.88;4471801;32;34722;-85
2023/10/06 05:25:45;;;;;;;14.98;6.32;;;;;;;13.26;60.35;100091.72;4457305;32;33750;-85
2023/10/06 05:28:16;;;;;;;15.65;6.32;;;;;;;13.14;60.83;100097.56;4460871;32;33663;-85
2023/10/06 05:30:45;;;;;;;12.07;6.22;;;;;;;13.37;59.98;100099.69;4455886;32;34813;-85
2023/10/06 05:33:14;;;;;;;13.40;6.40;;;;;;;13.08;60.81;100114.81;4441869;32;34280;-85
2023/10/06 05:35:43;;;;;;;16.17;6.55;;;;;;;13.17;60.68;100106.28;4455953;32;33804;-84
2023/10/06 05:38:13;;;;;;;12.93;5.97;;;;;;;13.39;59.78;100106.69;4462226;32;33356;-85
2023/10/06 05:40:42;;;;;;;14.40;6.47;;;;;;;13.68;59.15;100118.44;4469456;32;35018;-85
2023/10/06 05:43:11;;;;;;;11.40;5.97;;;;;;;13.44;59.61;100117.19;4456020;32;34957;-85
2023/10/06 05:45:39;;;;;;;15.57;6.25;;;;;;;13.52;59.47;100123.38;4471231;32;33973;-85
2023/10/06 05:48:11;;;;;;;10.40;5.72;;;;;;;13.47;59.78;100117.22;4471191;32;33648;-88
2023/10/06 05:50:40;;;;;;;15.25;6.30;;;;;;;13.71;59.17;100127.16;4456542;32;33228;-87
2023/10/06 05:53:12;;;;;;;15.80;6.93;;;;;;;13.65;59.32;100129.69;4470693;32;34877;-84
2023/10/06 05:55:43;;;;;;;14.27;5.95;;;;;;;13.30;60.20;100127.38;4471375;32;34926;-84
2023/10/06 05:58:19;;;;;;;12.57;5.43;;;;;;;13.77;59.18;100131.59;4471493;32;33082;-84
2023/10/06 06:00:56;;;;;;;12.85;6.75;;;;;;;14.10;57.87;100137.31;4471119;32;33890;-85
2023/10/06 06:03:24;;;;;;;15.98;5.93;;;;;;;14.02;58.71;100136.34;4470987;32;34066;-85
2023/10/06 06:05:53;;;;;;;17.25;6.00;;;;;;;13.80;58.71;100136.88;4470627;32;34727;-85
2023/10/06 06:08:21;;;;;;;13.73;6.40;;;;;;;13.84;58.55;100136.94;4453813;32;33160;-85
2023/10/06 06:10:49;;;;;;;12.27;5.85;;;;;;;14.23;57.75;100147.91;4468047;32;33752;-85
2023/10/06 06:13:17;;;;;;;15.02;6.60;;;;;;;14.24;57.47;100154.88;4468022;32;33413;-85
2023/10/06 06:15:48;;;;;;;10.57;5.62;;;;;;;14.38;57.42;100153.31;4468016;32;34246;-85
2023/10/06 06:18:16;;;;;;;13.07;5.82;;;;;;;14.64;56.96;100148.47;4468014;32;33910;-84
2023/10/06 06:20:43;;;;;;;14.75;5.95;;;;;;;14.37;57.91;100146.34;4453645;32;33900;-85
2023/10/06 06:23:15;;;;;;;12.75;5.70;;;;;;;14.32;57.50;100145.44;4467957;32;34679;-84
2023/10/06 06:25:46;;;;;;;12.37;6.12;;;;;;;14.44;57.63;100153.41;4468146;32;33901;-84
2023/10/06 06:28:16;;;;;;;11.43;6.20;;;;;;;14.67;56.70;100160.69;4454361;32;34200;-84
2023/10/06 06:30:47;;;;;;;14.13;6.15;;;;;;;14.64;56.63;100155.44;4468129;32;33665;-84
2023/10/06 06:33:22;;;;;;;13.60;6.30;;;;;;;14.53;57.16;100150.94;4467829;32;34660;-85
2023/10/06 06:35:49;;;;;;;18.27;6.50;;;;;;;14.50;56.60;100152.63;4468105;32;33990;-85
2023/10/06 06:38:18;;;;;;;9.70;5.40;;;;;;;14.70;56.40;100155.47;4468092;32;33946;-85
2023/10/06 06:40:48;;;;;;;11.80;5.47;;;;;;;14.62;56.29;100160.59;4468324;32;33824;-84
2023/10/06 06:43:19;;;;;;;14.57;5.85;;;;;;;14.33;57.21;100165.44;4468255;32;34680;-84
2023/10/06 06:45:47;;;;;;;11.95;5.47;;;;;;;14.22;57.26;100167.91;4467961;32;35263;-84
2023/10/06 06:48:16;;;;;;;14.30;5.62;;;;;;;14.72;56.06;100172.06;4468238;32;32770;-85
2023/10/06 06:50:46;;;;;;;14.68;5.57;;;;;;;14.70;55.92;100178.97;4467923;32;33302;-85
2023/10/06 06:53:14;;;;;;;12.98;6.12;;;;;;;14.50;56.72;100183.94;4467657;32;34893;-84
2023/10/06 06:55:41;;;;;;;11.43;5.95;;;;;;;14.50;56.72;100191.78;4467925;32;33719;-84
2023/10/06 06:58:12;;;;;;;12.13;5.85;;;;;;;14.72;55.90;100185.09;4454093;32;33301;-85
2023/10/06 07:00:40;;;;;;;13.38;6.15;;;;;;;14.60;56.49;100180.59;4453708;32;34038;-84
2023/10/06 07:03:08;;;;;;;13.85;5.97;;;;;;;14.41;56.99;100189.91;4468119;32;33584;-85
2023/10/06 07:05:35;;;;;;;13.40;6.00;;;;;;;14.45;56.44;100191.69;4467853;32;34150;-85
2023/10/06 07:08:04;;;;;;;11.32;5.53;;;;;;;14.28;57.12;100193.16;4467603;32;34417;-84
2023/10/06 07:10:33;;;;;;;11.75;5.53;;;;;;;14.62;56.30;100198.88;4468143;32;34788;-85
2023/10/06 07:13:02;;;;;;;11.82;5.60;;;;;;;14.53;56.47;100197.91;4468062;32;34947;-84
2023/10/06 07:15:30;;;;;;;10.57;4.78;;;;;;;14.53;56.96;100197.91;4467840;32;33611;-84
2023/10/06 07:17:58;;;;;;;14.07;5.90;;;;;;;14.55;57.06;100201.44;4467506;32;33526;-84
2023/10/06 07:20:29;;;;;;;12.52;5.22;;;;;;;14.43;58.11;100198.59;4467077;32;33942;-84
2023/10/06 07:23:02;;;;;;;12.68;5.95;;;;;;;14.35;57.99;100200.22;4453751;32;33441;-85
2023/10/06 07:25:29;;;;;;;12.68;5.87;;;;;;;14.30;57.79;100196.69;4468099;32;34150;-84
2023/10/06 07:27:58;;;;;;;14.32;5.50;;;;;;;14.89;56.13;100199.25;4467738;32;34640;-83
2023/10/06 07:30:27;;;;;;;13.40;5.28;;;;;;;14.90;57.25;100205.34;4453505;32;34625;-83
2023/10/06 07:32:55;;;;;;;14.68;5.93;;;;;;;14.54;57.89;100204.88;4453878;32;34151;-85
2023/10/06 07:35:30;;;;;;;14.50;5.18;;;;;;;14.34;57.85;100203.72;4467319;32;34660;-85
2023/10/06 07:37:58;;;;;;;12.88;5.30;;;;;;;15.13;55.81;100205.59;4454364;32;33120;-84
2023/10/06 07:40:27;;;;;;;10.15;4.68;;;;;;;15.14;56.02;100207.34;4468126;32;34713;-88
2023/10/06 07:42:56;;;;;;;12.20;4.97;;;;;;;15.35;56.11;100209.31;4469405;32;34633;-90
2023/10/06 07:45:25;;;;;;;14.77;5.35;;;;;;;15.35;56.07;100220.63;4467812;32;34058;-84
2023/10/06 07:47:56;;;;;;;12.10;4.82;;;;;;;15.36;56.05;100224.13;4467174;32;33383;-84
2023/10/06 07:50:26;;;;;;;12.05;5.50;;;;;;;15.20;56.08;100221.34;4467116;32;33700;-84
2023/10/06 07:52:54;;;;;;;12.55;5.28;;;;;;;15.15;55.96;100211.69;4453643;32;34121;-85
2023/10/06 07:55:23;;;;;;;12.40;5.10;;;;;;;15.06;56.02;100215.09;4443999;32;33837;-83
2023/10/06 07:57:51;;;;;;;11.00;4.60;;;;;;;15.63;54.99;100218.28;4445608;32;33574;-87
2023/10/06 08:00:38;;;;;;;15.38;5.20;;;;;;;16.05;54.14;100223.87;4458843;32;33719;-84
2023/10/06 08:03:06;;;;;;;12.85;5.25;;;;;;;16.26;52.50;100219.69;4445312;32;34099;-83
2023/10/06 08:05:34;;;;;;;12.90;5.18;;;;;;;16.47;52.42;100214.56;4451444;32;34556;-83
2023/10/06 08:08:04;;;;;;;12.18;5.03;;;;;;;16.56;51.76;100225.97;4451722;32;32895;-82
2023/10/06 08:10:32;;;;;;;12.52;5.32;;;;;;;16.52;52.51;100223.34;4452140;32;34017;-87
2023/10/06 08:13:02;;;;;;;11.40;4.80;;;;;;;16.95;50.89;100228.81;4453806;32;34061;-87
2023/10/06 08:15:32;;;;;;;11.32;4.93;;;;;;;16.96;51.24;100235.78;4466991;32;33868;-87
2023/10/06 08:18:01;;;;;;;13.25;4.70;;;;;;;17.30;50.87;100227.16;4453045;32;32219;-87
2023/10/06 08:20:30;;;;;;;10.93;4.60;;;;;;;17.23;51.74;100241.97;4467195;32;33809;-85
2023/10/06 08:22:58;;;;;;;11.65;5.15;;;;;;;17.41;51.17;100238.53;4465079;32;34009;-85
2023/10/06 08:25:27;;;;;;;12.13;4.72;;;;;;;17.47;50.85;100239.44;4451647;32;33728;-82
2023/10/06 08:27:59;;;;;;;9.02;4.35;;;;;;;17.93;49.03;100231.62;4451196;32;34196;-87
2023/10/06 08:30:28;;;;;;;11.77;4.60;;;;;;;17.80;49.63;100232.50;4459264;32;34832;-95
2023/10/06 08:32:59;;;;;;;12.95;4.82;;;;;;;18.11;49.42;100229.91;4467105;32;34406;-86
2023/10/06 08:35:26;;;;;;;10.50;4.32;;;;;;;18.31;47.65;100232.50;4466548;32;33898;-83
2023/10/06 08:37:58;;;;;;;9.73;4.00;;;;;;;18.41;48.30;100232.47;4452904;32;33551;-82
2023/10/06 08:40:26;;;;;;;10.98;4.45;;;;;;;18.72;48.13;100237.66;4467297;32;33548;-88
2023/10/06 08:42:56;;;;;;;11.27;4.55;;;;;;;18.98;46.22;100241.94;4446095;32;33732;-82
2023/10/06 08:45:28;;;;;;;11.25;4.60;;;;;;;18.65;45.70;100242.03;4437225;32;34451;-83
2023/10/06 08:48:09;;;;;;;14.55;4.35;;;;;;;18.55;47.60;100231.53;4451036;32;33445;-85
2023/10/06 08:50:37;;;;;;;12.10;3.65;;;;;;;18.78;46.63;100236.75;4451618;32;33940;-85
2023/10/06 08:53:09;;;;;;;14.20;3.92;;;;;;;18.92;45.80;100233.19;4437318;32;34112;-85
2023/10/06 08:55:38;;;;;;;9.35;4.05;;;;;;;18.97;46.69;100238.44;4447294;32;34660;-86
2023/10/06 08:58:13;;;;;;;10.25;3.90;;;;;;;19.22;46.66;100244.47;4465791;32;33186;-88
2023/10/06 09:00:43;;;;;;;11.23;4.62;;;;;;;19.08;46.17;100235.75;4459684;32;33841;-83
2023/10/06 09:03:14;;;;;;;9.60;4.35;;;;;;;19.38;45.10;100240.84;4453389;32;34123;-86
2023/10/06 09:05:42;;;;;;;8.45;4.18;;;;;;;19.54;45.60;100240.75;4450834;32;34271;-85
2023/10/06 09:08:11;;;;;;;14.60;4.60;;;;;;;19.38;45.21;100232.97;4440438;32;33404;-87
2023/10/06 09:10:41;;;;;;;9.20;4.70;;;;;;;19.73;43.61;100231.00;4452421;32;33603;-87
2023/10/06 09:13:11;;;;;;;12.02;4.45;;;;;;;19.50;44.25;100233.78;4453072;32;33720;-87
2023/10/06 09:15:40;;;;;;;8.48;4.43;;;;;;;19.47;44.46;100233.78;4468135;32;33459;-88
2023/10/06 09:18:20;;;;;;;9.90;4.70;;;;;;;19.62;43.61;100233.72;4448607;32;34228;-88
2023/10/06 09:20:48;;;;;;;10.40;4.05;;;;;;;19.66;44.61;100231.06;4436558;32;33794;-91
2023/10/06 09:23:43;;;;;;;10.18;4.20;;;;;;;19.56;43.75;100234.63;4437096;32;34106;-92
2023/10/06 09:26:12;;;;;;;11.95;3.87;;;;;;;19.59;43.25;100233.72;4454462;32;34613;-83
2023/10/06 09:28:52;;;;;;;10.90;4.50;;;;;;;19.99;43.73;100230.81;4454784;32;34181;-89
2023/10/06 09:31:44;;;;;;;11.32;4.75;;;;;;;20.16;42.70;100231.53;4452866;32;33525;-87
2023/10/06 09:34:26;;;;;;;9.75;4.30;;;;;;;20.08;43.93;100234.25;4466034;32;33792;-86
2023/10/06 09:36:53;;;;;;;11.15;4.32;;;;;;;19.95;41.93;100226.44;4452474;32;34059;-86
2023/10/06 09:39:29;;;;;;;9.88;3.75;;;;;;;20.15;41.74;100229.75;4466243;32;33603;-90
2023/10/06 09:42:05;;;;;;;11.73;4.00;;;;;;;20.48;42.28;100219.78;4438232;32;33870;-88
2023/10/06 09:44:34;;;;;;;7.72;3.78;;;;;;;20.52;41.59;100211.00;4452659;32;34115;-86
2023/10/06 09:47:08;;;;;;;10.00;4.07;;;;;;;20.51;41.74;100217.16;4438738;32;33937;-87
2023/10/06 09:49:37;;;;;;;10.65;4.12;;;;;;;20.52;40.95;100218.91;4426425;32;32271;-88
2023/10/06 09:52:05;;;;;;;9.57;4.22;;;;;;;20.38;40.94;100209.38;4439139;32;33442;-87
2023/10/06 09:54:34;;;;;;;13.55;4.00;;;;;;;20.30;41.00;100210.31;4439320;32;35055;-86
2023/10/06 09:57:02;;;;;;;13.40;4.30;;;;;;;20.52;41.43;100208.38;4439331;32;34857;-86
2023/10/06 09:59:32;;;;;;;14.38;4.80;;;;;;;20.70;40.65;100205.53;4452515;32;34163;-86
2023/10/06 10:02:01;;;;;;;8.43;3.30;;;;;;;20.42;40.80;100200.53;4452371;32;34621;-86
2023/10/06 10:04:33;;;;;;;6.18;2.70;;;;;;;20.47;40.41;100207.53;4439117;32;33823;-89
2023/10/06 10:07:01;;;;;;;5.62;2.60;;;;;;;20.83;39.06;100209.72;4452338;32;33838;-88
2023/10/06 10:09:31;;;;;;;7.60;2.55;;;;;;;20.86;40.32;100199.16;4439241;32;33149;-85
2023/10/06 10:12:00;;;;;;;7.50;3.20;;;;;;;21.00;40.44;100204.25;4438784;32;34768;-86
2023/10/06 10:14:49;;;;;;;7.97;3.08;;;;;;;20.95;39.87;100198.19;4452637;32;34026;-86
2023/10/06 10:17:37;;;;;;;6.10;2.20;;;;;;;21.17;38.60;100193.47;4438583;32;34620;-90
2023/10/06 10:20:09;;;;;;;6.40;1.85;;;;;;;21.17;40.31;100188.19;4438643;32;33097;-86
2023/10/06 10:22:40;;;;;;;5.47;2.10;;;;;;;21.23;39.43;100177.56;4439221;32;34891;-85
2023/10/06 10:25:08;;;;;;;5.65;2.25;;;;;;;20.94;38.39;100169.19;4452914;32;35143;-86
2023/10/06 10:27:39;;;;;;;5.80;2.75;;;;;;;21.17;37.07;100164.47;4438692;32;34235;-87
2023/10/06 10:30:09;;;;;;;6.95;2.72;;;;;;;21.02;40.25;100164.69;4438333;32;33204;-85
2023/10/06 10:32:41;;;;;;;5.70;2.67;;;;;;;21.38;36.07;100148.34;4452500;32;35024;-85
2023/10/06 10:35:15;;;;;;;6.55;2.67;;;;;;;21.25;36.65;100144.16;4452945;32;33958;-85
2023/10/06 10:37:59;;;;;;;7.00;3.12;;;;;;;21.22;36.86;100138.06;4452445;32;33628;-84
2023/10/06 10:40:48;;;;;;;6.68;2.78;;;;;;;21.14;36.99;100146.06;4452818;32;32566;-84
2023/10/06 10:43:16;;;;;;;7.18;2.62;;;;;;;21.63;38.94;100145.34;4438719;32;34612;-83
2023/10/06 10:45:47;;;;;;;5.30;2.35;;;;;;;21.58;37.80;100141.87;4452459;32;33771;-85
2023/10/06 10:48:15;;;;;;;6.22;2.00;;;;;;;21.57;37.68;100143.66;4438163;32;33738;-84
2023/10/06 10:51:05;;;;;;;4.93;2.17;;;;;;;21.16;36.94;100136.34;4452297;32;34495;-85
2023/10/06 10:53:43;;;;;;;6.35;2.20;;;;;;;21.53;37.37;100135.81;4438881;32;34385;-85
2023/10/06 10:56:33;;;;;;;7.40;2.60;;;;;;;21.79;35.63;100140.66;4438053;32;34187;-84
2023/10/06 10:59:03;;;;;;;5.50;2.70;;;;;;;21.27;37.58;100133.56;4438021;32;34074;-82
2023/10/06 11:01:40;;;;;;;5.97;2.45;;;;;;;21.66;37.96;100126.78;4452033;32;34036;-84
2023/10/06 11:04:29;;;;;;;6.60;2.65;;;;;;;21.63;36.23;100121.59;4452383;32;33996;-84
2023/10/06 11:07:01;;;;;;;7.45;3.00;;;;;;;22.20;35.24;100120.56;4452187;32;34012;-86
2023/10/06 11:09:41;;;;;;;5.97;1.95;;;;;;;22.02;37.11;100119.13;4438702;32;34546;-85
2023/10/06 11:12:30;;;;;;;6.25;2.47;;;;;;;22.31;34.98;100111.53;4452154;32;32931;-86
2023/10/06 11:15:13;;;;;;;7.75;2.75;;;;;;;22.13;36.40;100111.87;4438314;32;33219;-84
2023/10/06 11:17:44;;;;;;;5.40;2.20;;;;;;;21.92;36.75;100112.25;4452453;32;34111;-87
2023/10/06 11:20:13;;;;;;;5.50;2.30;;;;;;;22.26;35.40;100116.03;4438584;32;33187;-84
2023/10/06 11:22:55;;;;;;;7.00;2.90;;;;;;;22.16;36.34;100119.78;4452047;32;33027;-86
2023/10/06 11:25:32;;;;;;;6.40;2.28;;;;;;;22.32;35.32;100105.34;4438061;32;33565;-84
2023/10/06 11:28:03;;;;;;;5.57;2.45;;;;;;;21.81;36.59;100107.19;4438636;32;34183;-84
2023/10/06 11:30:32;;;;;;;10.95;2.47;;;;;;;21.91;38.25;100115.81;4452171;32;34786;-86
2023/10/06 11:33:02;;;;;;;5.25;2.42;;;;;;;22.23;37.68;100116.06;4452102;32;34475;-84
2023/10/06 11:35:31;;;;;;;5.55;1.83;;;;;;;22.36;36.81;100106.16;4451785;32;33795;-84
2023/10/06 11:37:59;;;;;;;5.22;2.40;;;;;;;22.18;37.40;100107.38;4451958;32;35002;-83
2023/10/06 11:40:27;;;;;;;6.57;2.20;;;;;;;22.08;37.17;100111.94;4437755;32;33832;-85
2023/10/06 11:42:55;;;;;;;4.82;1.50;;;;;;;22.40;37.16;100109.59;4437920;32;33456;-83
2023/10/06 11:45:31;;;;;;;4.75;1.80;;;;;;;22.58;35.15;100109.22;4452572;32;33540;-86
2023/10/06 11:47:59;;;;;;;15.60;2.05;;;;;;;22.94;34.68;100101.41;4438545;32;34659;-84
2023/10/06 11:50:32;;;;;;;5.53;1.60;;;;;;;22.67;35.15;100103.72;4451945;32;33407;-85
2023/10/06 11:53:01;;;;;;;4.43;1.37;;;;;;;22.49;37.05;100085.63;4437389;32;33353;-95
2023/10/06 11:55:35;;;;;;;3.65;1.33;;;;;;;22.32;35.05;100092.13;4452396;32;34932;-85